createdAt,value
2023-05-23T00:01:09.211Z,8.02
2023-05-23T00:03:36.654Z,8.10
2023-05-23T00:06:06.071Z,6.55
2023-05-23T00:08:32.697Z,8.02
2023-05-23T00:10:59.525Z,8.25
2023-05-23T00:13:26.837Z,8.27
2023-05-23T00:15:53.565Z,7.07
2023-05-23T00:18:22.285Z,7.97
2023-05-23T00:20:48.994Z,6.90
2023-05-23T00:23:19.200Z,10.25
2023-05-23T00:25:53.014Z,6.95
2023-05-23T00:28:20.390Z,7.40
2023-05-23T00:30:47.336Z,8.07
2023-05-23T00:33:14.625Z,8.50
2023-05-23T00:35:42.521Z,10.60
2023-05-23T00:38:11.626Z,7.82
2023-05-23T00:40:38.519Z,9.23
2023-05-23T00:43:05.191Z,7.13
2023-05-23T00:45:32.092Z,9.80
2023-05-23T00:48:00.348Z,8.23
2023-05-23T00:50:31.807Z,8.80
2023-05-23T00:53:00.765Z,8.43
2023-05-23T00:55:28.591Z,6.53
2023-05-23T00:57:58.700Z,7.72
2023-05-23T01:00:26.394Z,4.20
2023-05-23T01:02:53.665Z,4.65
2023-05-23T01:05:22.904Z,5.25
2023-05-23T01:07:51.663Z,5.50
2023-05-23T01:13:25.741Z,3.20
2023-05-23T01:16:07.821Z,4.90
2023-05-23T01:18:48.657Z,6.70
2023-05-23T01:21:19.669Z,6.63
2023-05-23T01:24:21.792Z,5.72
2023-05-23T01:27:31.211Z,3.63
2023-05-23T01:30:00.850Z,2.92
2023-05-23T01:32:29.650Z,4.10
2023-05-23T01:34:57.226Z,3.97
2023-05-23T01:37:23.947Z,4.20
2023-05-23T01:39:50.870Z,3.90
2023-05-23T01:42:18.397Z,4.80
2023-05-23T01:44:46.220Z,3.60
2023-05-23T01:47:14.743Z,3.28
2023-05-23T01:49:42.105Z,4.70
2023-05-23T01:52:12.159Z,5.38
2023-05-23T01:54:39.312Z,6.25
2023-05-23T01:57:06.806Z,4.85
2023-05-23T01:59:33.628Z,4.60
2023-05-23T02:02:00.440Z,4.38
2023-05-23T02:04:28.475Z,5.55
2023-05-23T02:06:55.064Z,3.70
2023-05-23T02:09:21.760Z,3.28
2023-05-23T02:11:48.515Z,4.00
2023-05-23T02:14:15.217Z,3.67
2023-05-23T02:16:41.967Z,6.07
2023-05-23T02:19:08.754Z,4.85
2023-05-23T02:21:35.908Z,3.50
2023-05-23T02:24:02.597Z,5.95
2023-05-23T02:26:29.449Z,4.05
2023-05-23T02:28:56.129Z,3.42
2023-05-23T02:31:23.605Z,4.63
2023-05-23T02:33:50.488Z,3.55
2023-05-23T02:36:17.252Z,5.38
2023-05-23T02:38:43.912Z,5.43
2023-05-23T02:41:12.406Z,4.82
2023-05-23T02:43:39.479Z,6.40
2023-05-23T02:46:06.257Z,9.65
2023-05-23T02:48:32.895Z,4.28
2023-05-23T02:50:59.725Z,8.40
2023-05-23T02:53:27.022Z,6.18
2023-05-23T02:55:53.745Z,4.78
2023-05-23T02:58:20.846Z,7.05
2023-05-23T03:00:47.633Z,7.65
2023-05-23T03:03:14.296Z,5.32
2023-05-23T03:05:42.161Z,7.07
2023-05-23T03:08:09.011Z,8.23
2023-05-23T03:10:36.335Z,9.15
2023-05-23T03:13:03.037Z,6.95
2023-05-23T03:15:29.700Z,6.65
2023-05-23T03:17:56.410Z,8.85
2023-05-23T03:20:23.000Z,11.90
2023-05-23T03:22:49.666Z,6.90
2023-05-23T03:25:16.918Z,7.65
2023-05-23T03:27:43.664Z,8.80
2023-05-23T03:30:10.846Z,11.02
2023-05-23T03:32:37.592Z,7.40
2023-05-23T03:35:04.789Z,14.50
2023-05-23T03:37:31.454Z,11.27
2023-05-23T03:39:58.217Z,10.60
2023-05-23T03:42:24.949Z,8.82
2023-05-23T03:44:51.653Z,9.07
2023-05-23T03:47:18.250Z,8.30
2023-05-23T03:49:45.572Z,11.80
2023-05-23T03:52:12.356Z,7.00
2023-05-23T03:54:39.035Z,7.72
2023-05-23T03:57:05.989Z,7.53
2023-05-23T03:59:32.586Z,6.03
2023-05-23T04:02:00.472Z,7.00
2023-05-23T04:04:28.157Z,8.98
2023-05-23T04:06:54.967Z,7.25
2023-05-23T04:09:21.808Z,6.85
2023-05-23T04:11:48.801Z,10.07
2023-05-23T04:14:15.564Z,5.05
2023-05-23T04:16:42.396Z,7.47
2023-05-23T04:19:09.180Z,5.70
2023-05-23T04:21:36.147Z,5.18
2023-05-23T04:24:03.215Z,7.53
2023-05-23T04:26:30.440Z,5.97
2023-05-23T04:28:57.449Z,6.07
2023-05-23T04:31:25.168Z,5.97
2023-05-23T04:33:57.325Z,5.95
2023-05-23T04:38:54.296Z,7.20
2023-05-23T04:41:24.126Z,8.93
2023-05-23T04:43:54.895Z,6.57
2023-05-23T04:46:41.046Z,10.75
2023-05-23T04:49:09.624Z,7.65
2023-05-23T04:51:39.224Z,10.00
2023-05-23T04:54:07.305Z,6.38
2023-05-23T04:56:37.537Z,6.95
2023-05-23T04:59:10.414Z,7.80
2023-05-23T05:01:41.438Z,5.72
2023-05-23T05:04:08.915Z,7.53
2023-05-23T05:06:38.582Z,7.07
2023-05-23T05:09:06.041Z,9.25
2023-05-23T05:11:36.751Z,9.10
2023-05-23T05:14:07.119Z,5.97
2023-05-23T05:16:34.976Z,8.70
2023-05-23T05:19:03.122Z,9.20
2023-05-23T05:21:30.584Z,7.95
2023-05-23T05:23:58.293Z,9.02
2023-05-23T05:26:25.849Z,6.35
2023-05-23T05:28:53.820Z,9.70
2023-05-23T05:31:23.808Z,7.80
2023-05-23T05:33:59.531Z,6.22
2023-05-23T05:36:27.032Z,8.40
2023-05-23T05:38:56.573Z,7.25
2023-05-23T05:41:26.556Z,8.23
2023-05-23T05:43:54.234Z,7.20
2023-05-23T05:46:22.043Z,7.20
2023-05-23T05:48:54.485Z,5.97
2023-05-23T05:51:22.165Z,8.43
2023-05-23T05:53:52.816Z,7.35
2023-05-23T05:56:25.604Z,8.32
2023-05-23T05:58:53.053Z,17.58
2023-05-23T06:01:27.084Z,9.07
2023-05-23T06:03:54.586Z,9.55
2023-05-23T06:06:24.406Z,10.40
2023-05-23T06:08:51.578Z,10.95
2023-05-23T06:11:22.872Z,9.18
2023-05-23T06:13:50.077Z,9.07
2023-05-23T06:16:18.950Z,8.38
2023-05-23T06:18:46.583Z,8.38
2023-05-23T06:21:20.521Z,10.10
2023-05-23T06:23:47.752Z,9.43
2023-05-23T06:26:15.353Z,10.73
2023-05-23T06:28:45.658Z,9.15
2023-05-23T06:31:16.416Z,9.27
2023-05-23T06:33:43.863Z,11.52
2023-05-23T06:36:14.462Z,8.65
2023-05-23T06:38:49.535Z,6.80
2023-05-23T06:41:17.301Z,8.68
2023-05-23T06:43:47.287Z,8.48
2023-05-23T06:46:21.079Z,9.63
2023-05-23T06:49:13.773Z,7.88
2023-05-23T06:51:42.612Z,8.73
2023-05-23T06:54:22.484Z,7.85
2023-05-23T06:56:50.164Z,9.07
2023-05-23T06:59:25.048Z,7.57
2023-05-23T07:01:55.077Z,9.13
2023-05-23T07:04:24.056Z,15.48
2023-05-23T07:06:54.966Z,9.73
2023-05-23T07:09:23.026Z,12.77
2023-05-23T07:11:49.929Z,10.40
2023-05-23T07:14:16.749Z,9.43
2023-05-23T07:16:48.257Z,7.63
2023-05-23T07:19:36.695Z,8.90
2023-05-23T07:22:04.284Z,11.35
2023-05-23T07:24:32.549Z,7.93
2023-05-23T07:27:04.141Z,10.35
2023-05-23T07:29:36.919Z,9.10
2023-05-23T07:32:03.969Z,9.45
2023-05-23T07:34:30.780Z,9.30
2023-05-23T07:36:57.843Z,10.82
2023-05-23T07:39:24.712Z,10.32
2023-05-23T07:41:52.744Z,11.98
2023-05-23T07:44:22.441Z,11.60
2023-05-23T07:46:51.806Z,18.52
2023-05-23T07:49:19.200Z,12.95
2023-05-23T07:51:45.861Z,14.20
2023-05-23T07:54:15.117Z,9.30
2023-05-23T07:56:43.577Z,16.77
2023-05-23T07:59:10.449Z,11.57
2023-05-23T08:01:37.600Z,12.57
2023-05-23T08:04:04.705Z,10.90
2023-05-23T08:06:32.063Z,13.43
2023-05-23T08:09:00.678Z,13.50
2023-05-23T08:11:31.288Z,11.25
2023-05-23T08:14:01.566Z,14.23
2023-05-23T08:16:28.642Z,13.98
2023-05-23T08:18:55.561Z,17.95
2023-05-23T08:21:23.403Z,14.05
2023-05-23T08:23:50.537Z,19.10
2023-05-23T08:26:17.446Z,18.10
2023-05-23T08:28:44.271Z,19.08
2023-05-23T08:31:11.941Z,16.05
2023-05-23T08:33:38.667Z,23.38
2023-05-23T08:36:05.584Z,18.23
2023-05-23T08:38:32.574Z,24.55
2023-05-23T08:41:02.252Z,25.90
2023-05-23T08:43:29.511Z,25.40
2023-05-23T08:45:57.558Z,26.05
2023-05-23T08:48:27.163Z,31.88
2023-05-23T08:50:54.211Z,30.13
2023-05-23T08:53:23.608Z,26.20
2023-05-23T08:55:55.724Z,21.75
2023-05-23T08:58:24.827Z,20.67
2023-05-23T09:00:53.823Z,17.95
2023-05-23T09:03:21.209Z,17.00
2023-05-23T09:05:49.831Z,19.83
2023-05-23T09:08:17.003Z,14.30
2023-05-23T09:10:43.790Z,13.93
2023-05-23T09:13:10.592Z,17.48
2023-05-23T09:15:37.862Z,12.13
2023-05-23T09:18:04.677Z,16.35
2023-05-23T09:20:31.845Z,14.13
2023-05-23T09:22:58.515Z,12.60
2023-05-23T09:25:25.221Z,12.80
2023-05-23T09:27:53.495Z,8.30
2023-05-23T09:30:20.193Z,8.48
2023-05-23T09:33:02.182Z,6.85
2023-05-23T09:35:31.979Z,6.15
2023-05-23T09:38:01.836Z,6.78
2023-05-23T09:40:32.753Z,3.03
2023-05-23T09:43:04.316Z,4.03
2023-05-23T09:45:32.230Z,4.13
2023-05-23T09:47:59.595Z,3.67
2023-05-23T09:50:32.459Z,2.97
2023-05-23T09:53:00.662Z,3.53
2023-05-23T09:55:27.796Z,2.92
2023-05-23T09:57:57.029Z,4.53
2023-05-23T10:00:28.519Z,2.72
2023-05-23T10:03:12.700Z,3.25
2023-05-23T10:05:49.427Z,3.58
2023-05-23T10:08:26.862Z,3.00
2023-05-23T10:11:17.115Z,1.92
2023-05-23T10:13:45.786Z,4.95
2023-05-23T10:16:19.306Z,2.10
2023-05-23T10:18:52.917Z,3.53
2023-05-23T10:21:24.924Z,3.15
2023-05-23T10:23:52.201Z,4.20
2023-05-23T10:26:19.428Z,3.30
2023-05-23T10:28:47.450Z,4.22
2023-05-23T10:31:14.300Z,2.45
2023-05-23T10:33:49.774Z,3.90
2023-05-23T10:36:26.023Z,4.60
2023-05-23T10:39:19.984Z,1.67
2023-05-23T10:41:56.594Z,3.53
2023-05-23T10:44:31.186Z,2.90
2023-05-23T10:47:02.272Z,1.75
2023-05-23T10:49:46.828Z,3.20
2023-05-23T10:52:16.389Z,3.05
2023-05-23T10:54:49.065Z,2.13
2023-05-23T10:57:27.018Z,3.20
2023-05-23T10:59:54.433Z,1.55
2023-05-23T11:02:28.606Z,2.72
2023-05-23T11:05:24.632Z,1.33
2023-05-23T11:08:10.001Z,2.28
2023-05-23T11:11:02.614Z,1.50
2023-05-23T11:13:54.106Z,2.45
2023-05-23T11:16:41.075Z,1.77
2023-05-23T11:19:23.252Z,3.97
2023-05-23T11:21:55.278Z,3.10
2023-05-23T11:24:22.692Z,1.65
2023-05-23T11:27:02.923Z,2.20
2023-05-23T11:29:30.532Z,1.90
2023-05-23T11:31:57.634Z,2.17
2023-05-23T11:34:27.776Z,1.45
2023-05-23T11:36:57.668Z,1.77
2023-05-23T11:39:24.526Z,6.07
2023-05-23T11:42:04.140Z,1.55
2023-05-23T11:44:31.049Z,3.75
2023-05-23T11:47:07.834Z,1.83
2023-05-23T11:49:39.254Z,1.70
2023-05-23T11:52:07.565Z,2.63
2023-05-23T11:54:34.442Z,2.40
2023-05-23T11:57:03.735Z,3.75
2023-05-23T11:59:30.608Z,2.25
2023-05-23T12:01:59.981Z,2.28
2023-05-23T12:04:27.594Z,1.50
2023-05-23T12:06:54.855Z,2.92
2023-05-23T12:09:21.957Z,2.53
2023-05-23T12:11:49.367Z,1.42
2023-05-23T12:14:18.186Z,1.77
2023-05-23T12:16:47.323Z,2.13
2023-05-23T12:19:17.608Z,2.53
2023-05-23T12:21:50.631Z,3.60
2023-05-23T12:24:19.951Z,1.73
2023-05-23T12:26:59.388Z,1.63
2023-05-23T12:29:35.671Z,2.28
2023-05-23T12:32:04.462Z,2.53
2023-05-23T12:34:31.375Z,1.50
2023-05-23T12:37:14.723Z,2.40
2023-05-23T12:39:45.496Z,1.25
2023-05-23T12:42:12.599Z,2.83
2023-05-23T12:44:42.198Z,4.28
2023-05-23T12:47:09.312Z,1.27
2023-05-23T12:49:36.251Z,1.42
2023-05-23T12:52:02.993Z,1.70
2023-05-23T12:54:29.840Z,2.30
2023-05-23T12:56:56.544Z,11.95
2023-05-23T12:59:23.900Z,1.88
2023-05-23T13:01:50.816Z,1.55
2023-05-23T13:04:17.974Z,1.70
2023-05-23T13:06:44.894Z,1.45
2023-05-23T13:09:11.565Z,1.58
2023-05-23T13:11:38.333Z,2.63
2023-05-23T13:14:05.119Z,3.22
2023-05-23T13:16:33.176Z,1.63
2023-05-23T13:19:00.217Z,4.43
2023-05-23T13:21:27.772Z,3.42
2023-05-23T13:23:54.546Z,1.42
2023-05-23T13:26:21.933Z,3.10
2023-05-23T13:28:48.688Z,1.70
2023-05-23T13:31:15.447Z,2.97
2023-05-23T13:33:42.642Z,3.22
2023-05-23T13:36:09.490Z,2.92
2023-05-23T13:38:36.432Z,1.10
2023-05-23T13:41:03.107Z,1.83
2023-05-23T13:43:29.917Z,4.85
2023-05-23T13:45:56.631Z,1.15
2023-05-23T13:48:23.549Z,1.27
2023-05-23T13:50:50.331Z,4.60
2023-05-23T13:53:17.375Z,1.65
2023-05-23T13:55:45.375Z,1.98
2023-05-23T13:58:12.832Z,1.83
2023-05-23T14:00:40.199Z,4.78
2023-05-23T14:03:08.628Z,2.17
2023-05-23T14:05:36.500Z,1.40
2023-05-23T14:08:04.604Z,2.03
2023-05-23T14:10:33.420Z,2.28
2023-05-23T14:13:00.476Z,1.30
2023-05-23T14:15:28.057Z,2.20
2023-05-23T14:17:56.092Z,1.73
2023-05-23T14:20:24.008Z,2.33
2023-05-23T14:22:51.680Z,3.00
2023-05-23T14:25:19.297Z,3.58
2023-05-23T14:27:46.457Z,8.23
2023-05-23T14:30:13.605Z,2.08
2023-05-23T14:32:40.485Z,2.72
2023-05-23T14:35:09.829Z,1.40
2023-05-23T14:37:37.186Z,4.80
2023-05-23T14:40:05.854Z,3.00
2023-05-23T14:42:32.837Z,2.45
2023-05-23T14:44:59.561Z,2.35
2023-05-23T14:47:26.750Z,1.70
2023-05-23T14:49:53.777Z,1.60
2023-05-23T14:52:20.690Z,2.88
2023-05-23T14:54:47.508Z,1.50
2023-05-23T14:57:14.236Z,2.08
2023-05-23T14:59:41.093Z,1.23
2023-05-23T15:02:08.266Z,1.75
2023-05-23T15:04:36.724Z,3.67
2023-05-23T15:07:03.910Z,1.27
2023-05-23T15:09:30.626Z,2.63
2023-05-23T15:11:57.363Z,2.22
2023-05-23T15:14:29.256Z,5.18
2023-05-23T15:17:13.149Z,4.22
2023-05-23T15:19:43.066Z,11.15
2023-05-23T15:22:18.385Z,3.38
2023-05-23T15:24:49.284Z,3.63
2023-05-23T15:27:20.660Z,9.18
2023-05-23T15:32:14.766Z,3.63
2023-05-23T15:34:41.525Z,5.30
2023-05-23T15:37:08.354Z,4.28
2023-05-23T15:39:35.752Z,6.00
2023-05-23T15:42:03.475Z,2.33
2023-05-23T15:44:30.255Z,1.88
2023-05-23T15:46:56.967Z,1.83
2023-05-23T15:49:26.865Z,2.72
2023-05-23T15:51:55.329Z,6.15
2023-05-23T15:54:22.326Z,4.55
2023-05-23T15:56:49.188Z,2.50
2023-05-23T15:59:15.922Z,4.13
2023-05-23T16:01:42.860Z,1.40
2023-05-23T16:04:09.846Z,3.58
2023-05-23T16:06:37.019Z,2.55
2023-05-23T16:09:03.903Z,4.50
2023-05-23T16:11:30.876Z,2.78
2023-05-23T16:13:58.193Z,1.52
2023-05-23T16:16:24.914Z,2.55
2023-05-23T16:18:51.727Z,3.67
2023-05-23T16:21:20.763Z,3.70
2023-05-23T16:23:51.057Z,5.00
2023-05-23T16:26:19.020Z,3.28
2023-05-23T16:28:45.778Z,7.47
2023-05-23T16:31:17.010Z,2.53
2023-05-23T16:33:44.571Z,2.45
2023-05-23T16:36:11.421Z,4.15
2023-05-23T16:38:38.135Z,3.97
2023-05-23T16:41:04.835Z,4.00
2023-05-23T16:43:31.948Z,3.45
2023-05-23T16:45:58.962Z,3.05
2023-05-23T16:48:25.881Z,1.88
2023-05-23T16:50:57.047Z,3.50
2023-05-23T16:53:24.717Z,3.65
2023-05-23T16:55:51.800Z,3.72
2023-05-23T16:58:20.865Z,3.08
2023-05-23T17:00:48.777Z,1.35
2023-05-23T17:03:15.998Z,2.20
2023-05-23T17:05:43.282Z,5.00
2023-05-23T17:08:10.947Z,2.83
2023-05-23T17:10:37.827Z,2.85
2023-05-23T17:13:04.779Z,1.92
2023-05-23T17:15:32.021Z,8.07
2023-05-23T17:17:58.773Z,2.72
2023-05-23T17:20:27.151Z,2.60
2023-05-23T17:22:55.146Z,3.33
2023-05-23T17:25:22.163Z,4.00
2023-05-23T17:27:48.795Z,1.80
2023-05-23T17:30:18.562Z,2.75
2023-05-23T17:32:46.698Z,1.98
2023-05-23T17:35:13.711Z,2.97
2023-05-23T17:37:43.744Z,3.60
2023-05-23T17:40:14.221Z,3.30
2023-05-23T17:42:41.527Z,2.08
2023-05-23T17:45:12.422Z,3.22
2023-05-23T17:47:39.449Z,2.83
2023-05-23T17:50:07.536Z,8.35
2023-05-23T17:52:34.957Z,1.75
2023-05-23T17:55:02.280Z,3.53
2023-05-23T17:57:31.123Z,3.63
2023-05-23T17:59:58.299Z,3.88
2023-05-23T18:02:25.458Z,2.97
2023-05-23T18:04:52.156Z,4.22
2023-05-23T18:07:19.142Z,3.50
2023-05-23T18:09:47.169Z,4.50
2023-05-23T18:12:14.928Z,2.78
2023-05-23T18:14:42.647Z,3.13
2023-05-23T18:17:09.996Z,2.17
2023-05-23T18:19:36.939Z,4.85
2023-05-23T18:22:03.950Z,4.75
2023-05-23T18:24:30.633Z,2.65
2023-05-23T18:26:58.241Z,5.13
2023-05-23T18:29:25.524Z,5.80
2023-05-23T18:31:59.162Z,4.22
2023-05-23T18:34:31.441Z,4.15
2023-05-23T18:36:59.002Z,3.67
2023-05-23T18:39:26.323Z,4.65
2023-05-23T18:41:53.049Z,2.67
2023-05-23T18:44:21.219Z,4.82
2023-05-23T18:46:48.138Z,2.97
2023-05-23T18:49:15.000Z,5.32
2023-05-23T18:51:43.138Z,5.38
2023-05-23T18:54:10.016Z,11.88
2023-05-23T18:56:36.744Z,4.60
2023-05-23T18:59:03.499Z,9.18
2023-05-23T19:01:30.726Z,10.15
2023-05-23T19:03:58.052Z,6.50
2023-05-23T19:06:27.366Z,5.72
2023-05-23T19:08:54.152Z,4.47
2023-05-23T19:11:22.101Z,5.15
2023-05-23T19:13:49.049Z,5.10
2023-05-23T19:16:17.695Z,3.92
2023-05-23T19:18:44.528Z,6.38
2023-05-23T19:21:11.980Z,3.17
2023-05-23T19:23:38.797Z,8.15
2023-05-23T19:26:05.525Z,5.10
2023-05-23T19:28:46.803Z,5.28
2023-05-23T19:31:14.518Z,6.57
2023-05-23T19:33:41.862Z,4.70
2023-05-23T19:36:09.387Z,6.95
2023-05-23T19:38:36.720Z,4.28
2023-05-23T19:41:04.236Z,6.95
2023-05-23T19:43:31.416Z,5.55
2023-05-23T19:46:02.111Z,7.57
2023-05-23T19:48:32.635Z,5.90
2023-05-23T19:51:00.010Z,7.45
2023-05-23T19:53:31.931Z,5.22
2023-05-23T19:55:59.095Z,7.30
2023-05-23T19:58:33.123Z,6.20
2023-05-23T20:01:00.584Z,5.43
2023-05-23T20:03:28.447Z,4.97
2023-05-23T20:05:56.042Z,6.03
2023-05-23T20:08:23.661Z,6.85
2023-05-23T20:10:58.531Z,9.85
2023-05-23T20:13:28.605Z,6.72
2023-05-23T20:15:56.131Z,5.68
2023-05-23T20:18:26.038Z,8.55
2023-05-23T20:20:56.795Z,10.82
2023-05-23T20:23:32.970Z,7.38
2023-05-23T20:26:07.101Z,9.55
2023-05-23T20:28:39.864Z,8.00
2023-05-23T20:31:07.393Z,8.18
2023-05-23T20:33:39.992Z,6.25
2023-05-23T20:36:22.659Z,6.35
2023-05-23T20:38:59.932Z,6.10
2023-05-23T20:41:29.792Z,5.72
2023-05-23T20:43:57.126Z,6.78
2023-05-23T20:46:34.885Z,7.95
2023-05-23T20:49:02.465Z,5.72
2023-05-23T20:51:39.999Z,11.25
2023-05-23T20:54:11.272Z,5.93
2023-05-23T20:56:40.340Z,8.90
2023-05-23T20:59:12.666Z,3.85
2023-05-23T21:01:43.507Z,4.77
2023-05-23T21:04:18.110Z,4.35
2023-05-23T21:09:40.355Z,7.40
2023-05-23T21:12:19.055Z,6.90
2023-05-23T21:14:47.898Z,7.65
2023-05-23T21:17:21.924Z,4.60
2023-05-23T21:19:49.562Z,8.95
2023-05-23T21:22:20.275Z,5.28
2023-05-23T21:24:51.629Z,5.30
2023-05-23T21:27:19.754Z,4.87
2023-05-23T21:29:56.342Z,3.58
2023-05-23T21:32:26.823Z,4.90
2023-05-23T21:34:54.295Z,6.43
2023-05-23T21:37:24.418Z,4.93
2023-05-23T21:39:52.730Z,4.57
2023-05-23T21:42:21.470Z,5.72
2023-05-23T21:44:53.568Z,5.72
2023-05-23T21:49:49.334Z,11.25
2023-05-23T21:52:23.306Z,6.00
2023-05-23T21:54:56.674Z,6.38
2023-05-23T21:57:26.692Z,4.05
2023-05-23T21:59:57.362Z,7.78
2023-05-23T22:02:24.995Z,4.22
2023-05-23T22:04:52.330Z,4.53
2023-05-23T22:07:20.404Z,5.18
2023-05-23T22:09:48.373Z,6.78
2023-05-23T22:12:16.035Z,4.95
2023-05-23T22:14:43.371Z,5.00
2023-05-23T22:17:14.731Z,4.32
2023-05-23T22:19:42.162Z,5.10
2023-05-23T22:22:18.443Z,5.68
2023-05-23T22:24:48.369Z,6.57
2023-05-23T22:27:16.119Z,4.57
2023-05-23T22:29:48.461Z,4.85
2023-05-23T22:32:15.853Z,6.80
2023-05-23T22:34:43.256Z,5.43
2023-05-23T22:37:10.528Z,5.97
2023-05-23T22:39:38.234Z,4.70
2023-05-23T22:42:09.055Z,5.38
2023-05-23T22:44:40.463Z,4.55
2023-05-23T22:47:13.817Z,3.97
2023-05-23T22:49:46.029Z,8.05
2023-05-23T22:52:16.950Z,5.18
2023-05-23T22:54:52.362Z,6.32
2023-05-23T22:57:28.872Z,4.30
2023-05-23T22:59:56.436Z,5.07
2023-05-23T23:02:23.181Z,5.20
2023-05-23T23:04:50.299Z,12.63
2023-05-23T23:07:17.096Z,5.47
2023-05-23T23:09:43.872Z,7.22
2023-05-23T23:12:10.690Z,7.40
2023-05-23T23:14:37.322Z,9.13
2023-05-23T23:17:05.010Z,6.25
2023-05-23T23:19:35.275Z,7.28
2023-05-23T23:22:02.213Z,6.72
2023-05-23T23:24:28.956Z,5.57
2023-05-23T23:26:55.695Z,7.28
2023-05-23T23:29:22.559Z,6.82
2023-05-23T23:31:49.294Z,6.05
2023-05-23T23:34:15.988Z,8.05
2023-05-23T23:36:42.669Z,5.22
2023-05-23T23:39:09.460Z,6.35
2023-05-23T23:41:36.102Z,7.97
2023-05-23T23:44:02.745Z,5.90
2023-05-23T23:46:29.409Z,6.25
2023-05-23T23:48:56.152Z,5.95
2023-05-23T23:51:22.913Z,6.05
2023-05-23T23:53:52.428Z,5.78
2023-05-23T23:56:20.065Z,8.70
2023-05-23T23:58:46.756Z,7.65
